sensor_id;sensor_type;location;lat;lon;timestamp;pressure;altitude;pressure_sealevel;temperature;humidity
6942;BME280;3510;43.200;27.920;2023-01-26T00:02:12;102006.34;;;8.46;53.04
6942;BME280;3510;43.200;27.920;2023-01-26T00:04:39;102007.16;;;8.24;53.99
6942;BME280;3510;43.200;27.920;2023-01-26T00:07:06;102000.88;;;8.65;53.98
6942;BME280;3510;43.200;27.920;2023-01-26T00:09:33;101992.28;;;8.63;53.35
6942;BME280;3510;43.200;27.920;2023-01-26T00:12:01;101986.03;;;8.82;53.58
6942;BME280;3510;43.200;27.920;2023-01-26T00:14:28;101991.34;;;8.92;52.90
6942;BME280;3510;43.200;27.920;2023-01-26T00:25:06;101986.03;;;9.28;51.72
6942;BME280;3510;43.200;27.920;2023-01-26T00:27:35;101989.50;;;8.76;52.74
6942;BME280;3510;43.200;27.920;2023-01-26T00:30:02;101972.75;;;8.90;53.28
6942;BME280;3510;43.200;27.920;2023-01-26T00:32:29;101977.97;;;9.08;52.17
6942;BME280;3510;43.200;27.920;2023-01-26T00:34:56;101976.44;;;8.71;53.26
6942;BME280;3510;43.200;27.920;2023-01-26T01:03:22;101949.19;;;9.36;51.94
6942;BME280;3510;43.200;27.920;2023-01-26T01:05:48;101934.56;;;9.09;52.53
6942;BME280;3510;43.200;27.920;2023-01-26T01:08:15;101932.00;;;9.95;50.44
6942;BME280;3510;43.200;27.920;2023-01-26T01:10:42;101935.59;;;9.81;50.57
6942;BME280;3510;43.200;27.920;2023-01-26T01:13:09;101941.38;;;8.87;52.62
6942;BME280;3510;43.200;27.920;2023-01-26T01:15:37;101929.28;;;8.99;52.34
6942;BME280;3510;43.200;27.920;2023-01-26T01:18:03;101930.47;;;8.56;53.82
6942;BME280;3510;43.200;27.920;2023-01-26T01:20:36;101924.19;;;9.06;52.54
6942;BME280;3510;43.200;27.920;2023-01-26T01:23:06;101921.16;;;9.24;52.65
6942;BME280;3510;43.200;27.920;2023-01-26T01:25:33;101931.41;;;8.80;53.06
6942;BME280;3510;43.200;27.920;2023-01-26T01:28:00;101919.78;;;8.73;53.82
6942;BME280;3510;43.200;27.920;2023-01-26T01:30:27;101918.66;;;8.78;53.76
6942;BME280;3510;43.200;27.920;2023-01-26T01:35:28;101917.00;;;8.63;54.36
6942;BME280;3510;43.200;27.920;2023-01-26T01:37:57;101915.91;;;8.68;53.72
6942;BME280;3510;43.200;27.920;2023-01-26T01:40:24;101917.09;;;8.48;55.01
6942;BME280;3510;43.200;27.920;2023-01-26T01:45:38;101916.75;;;9.14;53.61
6942;BME280;3510;43.200;27.920;2023-01-26T02:07:38;101900.16;;;9.24;55.21
6942;BME280;3510;43.200;27.920;2023-01-26T02:10:06;101902.47;;;9.06;55.59
6942;BME280;3510;43.200;27.920;2023-01-26T02:12:45;101898.72;;;8.87;56.52
6942;BME280;3510;43.200;27.920;2023-01-26T02:15:16;101897.50;;;8.60;56.33
6942;BME280;3510;43.200;27.920;2023-01-26T02:17:43;101878.31;;;8.61;56.16
6942;BME280;3510;43.200;27.920;2023-01-26T02:30:32;101864.88;;;8.83;57.44
6942;BME280;3510;43.200;27.920;2023-01-26T03:37:48;101831.88;;;8.64;56.75
6942;BME280;3510;43.200;27.920;2023-01-26T03:40:18;101832.16;;;8.52;56.96
6942;BME280;3510;43.200;27.920;2023-01-26T03:43:05;101833.63;;;9.04;56.71
6942;BME280;3510;43.200;27.920;2023-01-26T03:45:50;101833.34;;;8.78;57.12
6942;BME280;3510;43.200;27.920;2023-01-26T03:48:34;101822.28;;;8.92;55.90
6942;BME280;3510;43.200;27.920;2023-01-26T03:51:18;101831.84;;;9.03;55.96
6942;BME280;3510;43.200;27.920;2023-01-26T03:54:03;101835.97;;;9.03;56.07
6942;BME280;3510;43.200;27.920;2023-01-26T03:59:19;101836.38;;;8.60;57.22
6942;BME280;3510;43.200;27.920;2023-01-26T04:02:02;101832.38;;;8.69;56.60
6942;BME280;3510;43.200;27.920;2023-01-26T04:04:46;101833.78;;;8.90;56.58
6942;BME280;3510;43.200;27.920;2023-01-26T04:07:29;101829.00;;;9.00;56.25
6942;BME280;3510;43.200;27.920;2023-01-26T04:10:15;101825.66;;;8.77;56.87
6942;BME280;3510;43.200;27.920;2023-01-26T04:12:42;101818.13;;;8.77;56.99
6942;BME280;3510;43.200;27.920;2023-01-26T04:15:09;101827.97;;;8.98;56.19
6942;BME280;3510;43.200;27.920;2023-01-26T04:17:53;101819.38;;;8.96;56.48
6942;BME280;3510;43.200;27.920;2023-01-26T04:20:37;101815.78;;;8.78;57.04
6942;BME280;3510;43.200;27.920;2023-01-26T04:23:21;101819.16;;;9.02;56.53
6942;BME280;3510;43.200;27.920;2023-01-26T04:25:49;101810.44;;;8.75;56.67
6942;BME280;3510;43.200;27.920;2023-01-26T04:28:16;101814.66;;;8.83;56.72
6942;BME280;3510;43.200;27.920;2023-01-26T04:30:43;101817.09;;;9.06;56.57
6942;BME280;3510;43.200;27.920;2023-01-26T04:33:09;101815.00;;;8.86;56.71
6942;BME280;3510;43.200;27.920;2023-01-26T04:35:36;101813.53;;;8.88;56.23
6942;BME280;3510;43.200;27.920;2023-01-26T04:38:03;101813.59;;;8.81;56.94
6942;BME280;3510;43.200;27.920;2023-01-26T04:40:29;101810.59;;;8.61;57.71
6942;BME280;3510;43.200;27.920;2023-01-26T04:42:58;101813.88;;;8.91;56.73
6942;BME280;3510;43.200;27.920;2023-01-26T04:45:25;101812.97;;;8.75;57.01
6942;BME280;3510;43.200;27.920;2023-01-26T04:47:51;101812.50;;;8.86;57.22
6942;BME280;3510;43.200;27.920;2023-01-26T04:50:18;101813.25;;;8.78;57.15
6942;BME280;3510;43.200;27.920;2023-01-26T04:52:45;101817.66;;;8.72;57.47
6942;BME280;3510;43.200;27.920;2023-01-26T04:55:12;101805.25;;;8.89;56.95
6942;BME280;3510;43.200;27.920;2023-01-26T04:57:39;101809.78;;;8.85;56.86
6942;BME280;3510;43.200;27.920;2023-01-26T05:00:08;101819.94;;;9.25;56.58
6942;BME280;3510;43.200;27.920;2023-01-26T05:02:36;101813.72;;;8.90;57.55
6942;BME280;3510;43.200;27.920;2023-01-26T05:05:04;101812.56;;;8.79;57.30
6942;BME280;3510;43.200;27.920;2023-01-26T05:07:31;101805.66;;;8.85;57.69
6942;BME280;3510;43.200;27.920;2023-01-26T05:09:58;101806.38;;;8.68;58.20
6942;BME280;3510;43.200;27.920;2023-01-26T05:12:25;101799.34;;;8.73;58.07
6942;BME280;3510;43.200;27.920;2023-01-26T05:15:02;101804.97;;;9.02;57.10
6942;BME280;3510;43.200;27.920;2023-01-26T05:20:26;101798.72;;;9.14;56.88
6942;BME280;3510;43.200;27.920;2023-01-26T05:22:52;101804.31;;;8.96;57.24
6942;BME280;3510;43.200;27.920;2023-01-26T05:25:19;101804.72;;;9.08;57.15
6942;BME280;3510;43.200;27.920;2023-01-26T05:27:46;101804.84;;;8.78;57.78
6942;BME280;3510;43.200;27.920;2023-01-26T05:30:13;101801.31;;;9.07;57.00
6942;BME280;3510;43.200;27.920;2023-01-26T05:32:40;101810.81;;;8.71;57.50
6942;BME280;3510;43.200;27.920;2023-01-26T05:35:20;101804.28;;;8.80;57.46
6942;BME280;3510;43.200;27.920;2023-01-26T05:37:49;101811.97;;;8.66;57.76
6942;BME280;3510;43.200;27.920;2023-01-26T05:40:15;101806.81;;;8.34;58.44
6942;BME280;3510;43.200;27.920;2023-01-26T05:42:42;101813.25;;;8.39;58.36
6942;BME280;3510;43.200;27.920;2023-01-26T05:45:09;101808.75;;;8.37;58.30
6942;BME280;3510;43.200;27.920;2023-01-26T05:47:36;101795.59;;;8.54;57.72
6942;BME280;3510;43.200;27.920;2023-01-26T05:50:03;101801.47;;;8.31;58.30
6942;BME280;3510;43.200;27.920;2023-01-26T05:52:44;101802.19;;;8.30;57.58
6942;BME280;3510;43.200;27.920;2023-01-26T07:08:37;101772.53;;;9.44;56.13
6942;BME280;3510;43.200;27.920;2023-01-26T07:11:08;101771.59;;;9.35;56.02
6942;BME280;3510;43.200;27.920;2023-01-26T07:13:36;101768.97;;;9.26;56.79
6942;BME280;3510;43.200;27.920;2023-01-26T07:16:05;101773.78;;;9.56;55.93
6942;BME280;3510;43.200;27.920;2023-01-26T07:18:32;101772.97;;;9.64;55.15
6942;BME280;3510;43.200;27.920;2023-01-26T07:20:59;101764.53;;;9.39;55.99
6942;BME280;3510;43.200;27.920;2023-01-26T07:26:03;101762.44;;;9.04;57.07
6942;BME280;3510;43.200;27.920;2023-01-26T07:28:31;101767.47;;;9.04;56.52
6942;BME280;3510;43.200;27.920;2023-01-26T07:31:07;101761.13;;;9.63;55.94
6942;BME280;3510;43.200;27.920;2023-01-26T07:33:37;101758.03;;;9.26;57.33
6942;BME280;3510;43.200;27.920;2023-01-26T07:36:04;101757.66;;;9.14;56.74
6942;BME280;3510;43.200;27.920;2023-01-26T07:38:31;101750.88;;;9.37;56.77
6942;BME280;3510;43.200;27.920;2023-01-26T07:43:54;101736.19;;;9.49;56.15
6942;BME280;3510;43.200;27.920;2023-01-26T07:49:04;101727.34;;;9.28;55.70
6942;BME280;3510;43.200;27.920;2023-01-26T07:51:32;101728.22;;;9.29;56.23
6942;BME280;3510;43.200;27.920;2023-01-26T07:54:01;101724.31;;;9.64;55.84
6942;BME280;3510;43.200;27.920;2023-01-26T07:56:42;101726.97;;;9.57;56.03
6942;BME280;3510;43.200;27.920;2023-01-26T07:59:15;101716.94;;;9.41;56.23
6942;BME280;3510;43.200;27.920;2023-01-26T08:01:45;101715.97;;;9.72;55.98
6942;BME280;3510;43.200;27.920;2023-01-26T08:04:12;101720.81;;;9.95;55.98
6942;BME280;3510;43.200;27.920;2023-01-26T08:09:14;101710.34;;;10.41;54.84
6942;BME280;3510;43.200;27.920;2023-01-26T08:11:44;101703.81;;;10.01;55.69
6942;BME280;3510;43.200;27.920;2023-01-26T08:14:14;101714.88;;;9.94;55.88
6942;BME280;3510;43.200;27.920;2023-01-26T08:16:42;101710.09;;;9.80;56.31
6942;BME280;3510;43.200;27.920;2023-01-26T08:19:23;101718.16;;;10.02;55.76
6942;BME280;3510;43.200;27.920;2023-01-26T08:21:50;101724.16;;;9.87;56.27
6942;BME280;3510;43.200;27.920;2023-01-26T08:24:18;101731.72;;;9.87;56.21
6942;BME280;3510;43.200;27.920;2023-01-26T08:26:45;101732.19;;;10.84;54.21
6942;BME280;3510;43.200;27.920;2023-01-26T08:29:12;101733.41;;;10.28;55.44
6942;BME280;3510;43.200;27.920;2023-01-26T08:31:40;101745.13;;;10.12;55.35
6942;BME280;3510;43.200;27.920;2023-01-26T08:34:07;101746.81;;;10.20;55.36
6942;BME280;3510;43.200;27.920;2023-01-26T08:36:54;101746.91;;;10.13;55.49
6942;BME280;3510;43.200;27.920;2023-01-26T08:39:22;101734.69;;;9.91;56.08
6942;BME280;3510;43.200;27.920;2023-01-26T08:41:49;101726.59;;;10.36;55.29
6942;BME280;3510;43.200;27.920;2023-01-26T08:44:16;101725.44;;;10.08;55.45
6942;BME280;3510;43.200;27.920;2023-01-26T08:46:45;101722.63;;;9.72;56.72
6942;BME280;3510;43.200;27.920;2023-01-26T08:49:12;101722.22;;;9.84;56.50
6942;BME280;3510;43.200;27.920;2023-01-26T08:51:43;101711.81;;;9.24;58.70
6942;BME280;3510;43.200;27.920;2023-01-26T08:54:13;101713.22;;;9.62;58.42
6942;BME280;3510;43.200;27.920;2023-01-26T08:56:45;101710.03;;;9.47;59.62
6942;BME280;3510;43.200;27.920;2023-01-26T08:59:12;101702.84;;;9.10;60.38
6942;BME280;3510;43.200;27.920;2023-01-26T09:01:39;101692.44;;;9.47;59.79
6942;BME280;3510;43.200;27.920;2023-01-26T09:04:08;101691.75;;;9.32;59.99
6942;BME280;3510;43.200;27.920;2023-01-26T09:06:35;101687.09;;;9.68;59.96
6942;BME280;3510;43.200;27.920;2023-01-26T09:09:02;101672.44;;;10.39;58.55
6942;BME280;3510;43.200;27.920;2023-01-26T09:11:29;101682.38;;;10.64;58.18
6942;BME280;3510;43.200;27.920;2023-01-26T09:13:56;101681.41;;;10.79;57.74
6942;BME280;3510;43.200;27.920;2023-01-26T09:16:23;101679.88;;;10.47;58.65
6942;BME280;3510;43.200;27.920;2023-01-26T09:18:51;101676.59;;;10.48;58.43
6942;BME280;3510;43.200;27.920;2023-01-26T09:21:21;101674.69;;;10.71;57.60
6942;BME280;3510;43.200;27.920;2023-01-26T09:23:48;101658.03;;;10.21;59.40
6942;BME280;3510;43.200;27.920;2023-01-26T09:26:16;101668.34;;;10.83;57.80
6942;BME280;3510;43.200;27.920;2023-01-26T09:31:21;101644.94;;;10.50;58.39
6942;BME280;3510;43.200;27.920;2023-01-26T09:33:49;101641.09;;;10.53;59.15
6942;BME280;3510;43.200;27.920;2023-01-26T09:36:16;101640.94;;;10.52;59.09
6942;BME280;3510;43.200;27.920;2023-01-26T09:38:45;101639.31;;;10.52;59.31
6942;BME280;3510;43.200;27.920;2023-01-26T09:41:18;101630.72;;;10.94;58.29
6942;BME280;3510;43.200;27.920;2023-01-26T09:43:51;101626.28;;;10.48;59.02
6942;BME280;3510;43.200;27.920;2023-01-26T09:46:21;101627.72;;;12.70;53.36
6942;BME280;3510;43.200;27.920;2023-01-26T09:48:52;101613.72;;;12.36;53.64
6942;BME280;3510;43.200;27.920;2023-01-26T09:51:23;101610.84;;;12.42;53.43
6942;BME280;3510;43.200;27.920;2023-01-26T09:53:56;101614.06;;;12.87;52.86
6942;BME280;3510;43.200;27.920;2023-01-26T09:56:25;101611.97;;;13.02;52.41
6942;BME280;3510;43.200;27.920;2023-01-26T09:58:54;101597.31;;;13.27;52.23
6942;BME280;3510;43.200;27.920;2023-01-26T10:01:24;101590.19;;;12.94;52.22
6942;BME280;3510;43.200;27.920;2023-01-26T10:03:54;101585.25;;;12.09;54.35
6942;BME280;3510;43.200;27.920;2023-01-26T10:06:30;101581.34;;;12.89;53.31
6942;BME280;3510;43.200;27.920;2023-01-26T10:08:59;101573.97;;;13.40;51.92
6942;BME280;3510;43.200;27.920;2023-01-26T10:11:28;101572.06;;;12.79;54.18
6942;BME280;3510;43.200;27.920;2023-01-26T10:13:59;101562.66;;;13.86;52.42
6942;BME280;3510;43.200;27.920;2023-01-26T10:16:28;101568.47;;;13.74;53.03
6942;BME280;3510;43.200;27.920;2023-01-26T10:18:57;101560.97;;;14.58;51.31
6942;BME280;3510;43.200;27.920;2023-01-26T10:21:30;101479.94;;;14.37;52.99
6942;BME280;3510;43.200;27.920;2023-01-26T10:24:01;101527.44;;;14.50;53.83
6942;BME280;3510;43.200;27.920;2023-01-26T10:26:31;101530.19;;;15.17;52.90
6942;BME280;3510;43.200;27.920;2023-01-26T10:28:59;101415.41;;;14.64;51.96
6942;BME280;3510;43.200;27.920;2023-01-26T10:31:29;101478.09;;;15.33;50.55
6942;BME280;3510;43.200;27.920;2023-01-26T10:33:59;101473.06;;;15.44;50.43
6942;BME280;3510;43.200;27.920;2023-01-26T10:36:29;101446.50;;;15.39;49.85
6942;BME280;3510;43.200;27.920;2023-01-26T10:39:04;101497.13;;;15.83;49.69
6942;BME280;3510;43.200;27.920;2023-01-26T10:41:32;101500.97;;;16.35;49.03
6942;BME280;3510;43.200;27.920;2023-01-26T10:44:01;101497.88;;;16.39;48.19
6942;BME280;3510;43.200;27.920;2023-01-26T10:46:32;101488.09;;;16.57;47.58
6942;BME280;3510;43.200;27.920;2023-01-26T10:49:01;101490.44;;;16.66;47.68
6942;BME280;3510;43.200;27.920;2023-01-26T10:51:31;101502.19;;;15.83;48.42
6942;BME280;3510;43.200;27.920;2023-01-26T10:54:19;101498.72;;;16.16;47.12
6942;BME280;3510;43.200;27.920;2023-01-26T10:56:49;101428.38;;;16.39;46.80
6942;BME280;3510;43.200;27.920;2023-01-26T10:59:25;101431.50;;;16.00;46.96
6942;BME280;3510;43.200;27.920;2023-01-26T11:01:55;101471.56;;;16.27;47.03
6942;BME280;3510;43.200;27.920;2023-01-26T11:04:23;101471.69;;;16.29;47.11
6942;BME280;3510;43.200;27.920;2023-01-26T11:06:51;101477.06;;;16.45;46.75
6942;BME280;3510;43.200;27.920;2023-01-26T11:09:25;101421.66;;;15.92;47.12
6942;BME280;3510;43.200;27.920;2023-01-26T11:11:57;101447.41;;;16.20;46.92
6942;BME280;3510;43.200;27.920;2023-01-26T11:14:26;101481.41;;;16.11;47.94
6942;BME280;3510;43.200;27.920;2023-01-26T11:17:00;101480.94;;;16.05;47.55
6942;BME280;3510;43.200;27.920;2023-01-26T11:19:59;101455.78;;;16.19;46.57
6942;BME280;3510;43.200;27.920;2023-01-26T11:22:38;101464.56;;;16.60;47.09
6942;BME280;3510;43.200;27.920;2023-01-26T11:25:15;101431.72;;;15.91;47.53
6942;BME280;3510;43.200;27.920;2023-01-26T11:27:50;101398.88;;;15.47;47.84
6942;BME280;3510;43.200;27.920;2023-01-26T11:30:41;101474.97;;;15.81;48.06
6942;BME280;3510;43.200;27.920;2023-01-26T11:33:19;101475.06;;;16.53;46.32
6942;BME280;3510;43.200;27.920;2023-01-26T11:35:54;101449.59;;;16.04;46.66
6942;BME280;3510;43.200;27.920;2023-01-26T11:38:35;101479.63;;;16.21;47.51
6942;BME280;3510;43.200;27.920;2023-01-26T11:41:18;101368.38;;;15.81;46.07
6942;BME280;3510;43.200;27.920;2023-01-26T11:46:59;101458.09;;;16.40;46.32
6942;BME280;3510;43.200;27.920;2023-01-26T11:52:33;101407.44;;;15.94;45.75
6942;BME280;3510;43.200;27.920;2023-01-26T11:55:15;101462.59;;;16.56;45.34
6942;BME280;3510;43.200;27.920;2023-01-26T11:58:03;101449.28;;;16.72;45.53
6942;BME280;3510;43.200;27.920;2023-01-26T12:00:38;101423.06;;;16.48;45.18
6942;BME280;3510;43.200;27.920;2023-01-26T12:03:16;101450.75;;;16.80;44.52
6942;BME280;3510;43.200;27.920;2023-01-26T12:05:48;101445.28;;;16.87;44.48
6942;BME280;3510;43.200;27.920;2023-01-26T12:08:22;101391.00;;;16.61;44.64
6942;BME280;3510;43.200;27.920;2023-01-26T12:10:58;101371.16;;;16.44;45.28
6942;BME280;3510;43.200;27.920;2023-01-26T12:13:55;101434.47;;;16.89;44.05
6942;BME280;3510;43.200;27.920;2023-01-26T12:16:30;101408.00;;;16.74;44.26
6942;BME280;3510;43.200;27.920;2023-01-26T12:19:08;101438.28;;;16.59;45.41
6942;BME280;3510;43.200;27.920;2023-01-26T12:29:29;101310.84;;;16.41;44.66
6942;BME280;3510;43.200;27.920;2023-01-26T12:32:09;101431.97;;;16.66;45.30
6942;BME280;3510;43.200;27.920;2023-01-26T12:34:48;101366.34;;;16.60;44.77
6942;BME280;3510;43.200;27.920;2023-01-26T13:09:17;101337.63;;;16.25;46.51
6942;BME280;3510;43.200;27.920;2023-01-26T13:11:52;101375.94;;;16.76;47.21
6942;BME280;3510;43.200;27.920;2023-01-26T13:14:38;101306.63;;;16.42;46.23
6942;BME280;3510;43.200;27.920;2023-01-26T13:17:47;101353.25;;;16.42;47.12
6942;BME280;3510;43.200;27.920;2023-01-26T13:20:23;101311.63;;;16.40;46.98
6942;BME280;3510;43.200;27.920;2023-01-26T13:22:51;101322.78;;;16.31;47.76
6942;BME280;3510;43.200;27.920;2023-01-26T13:25:27;101265.28;;;15.94;47.80
6942;BME280;3510;43.200;27.920;2023-01-26T13:28:11;101323.00;;;16.34;48.50
6942;BME280;3510;43.200;27.920;2023-01-26T13:30:42;101330.00;;;16.25;48.72
6942;BME280;3510;43.200;27.920;2023-01-26T13:33:16;101311.88;;;16.20;48.72
6942;BME280;3510;43.200;27.920;2023-01-26T13:35:46;101278.34;;;16.12;48.94
6942;BME280;3510;43.200;27.920;2023-01-26T13:38:19;101273.91;;;16.21;48.96
6942;BME280;3510;43.200;27.920;2023-01-26T13:40:50;101270.28;;;16.18;48.86
6942;BME280;3510;43.200;27.920;2023-01-26T13:43:29;101241.81;;;16.10;48.78
6942;BME280;3510;43.200;27.920;2023-01-26T13:46:17;101262.72;;;16.06;49.19
6942;BME280;3510;43.200;27.920;2023-01-26T13:48:47;101266.09;;;15.70;49.51
6942;BME280;3510;43.200;27.920;2023-01-26T13:51:18;101271.47;;;15.75;49.29
6942;BME280;3510;43.200;27.920;2023-01-26T13:53:50;101254.28;;;15.70;49.23
6942;BME280;3510;43.200;27.920;2023-01-26T13:56:25;101323.63;;;16.55;49.16
6942;BME280;3510;43.200;27.920;2023-01-26T13:59:06;101288.28;;;15.72;50.60
6942;BME280;3510;43.200;27.920;2023-01-26T14:01:48;101294.41;;;15.64;50.66
6942;BME280;3510;43.200;27.920;2023-01-26T14:04:18;101273.13;;;15.86;50.25
6942;BME280;3510;43.200;27.920;2023-01-26T14:06:48;101291.44;;;16.30;49.42
6942;BME280;3510;43.200;27.920;2023-01-26T14:09:18;101284.88;;;16.09;49.15
6942;BME280;3510;43.200;27.920;2023-01-26T14:15:29;101191.41;;;15.43;49.73
6942;BME280;3510;43.200;27.920;2023-01-26T14:18:19;101297.88;;;16.25;49.35
6942;BME280;3510;43.200;27.920;2023-01-26T14:20:47;101280.59;;;15.96;49.86
6942;BME280;3510;43.200;27.920;2023-01-26T14:23:15;101297.00;;;16.13;49.77
6942;BME280;3510;43.200;27.920;2023-01-26T14:26:05;101300.25;;;15.87;50.02
6942;BME280;3510;43.200;27.920;2023-01-26T14:28:47;101286.53;;;16.08;48.89
6942;BME280;3510;43.200;27.920;2023-01-26T14:40:47;101307.75;;;15.97;48.56
6942;BME280;3510;43.200;27.920;2023-01-26T14:43:29;101299.47;;;16.00;48.44
6942;BME280;3510;43.200;27.920;2023-01-26T14:46:16;101289.31;;;16.00;49.12
6942;BME280;3510;43.200;27.920;2023-01-26T14:48:58;101238.84;;;15.20;49.41
6942;BME280;3510;43.200;27.920;2023-01-26T14:51:43;101305.88;;;15.83;48.92
6942;BME280;3510;43.200;27.920;2023-01-26T14:54:28;101223.28;;;15.51;48.21
6942;BME280;3510;43.200;27.920;2023-01-26T15:03:26;101293.53;;;15.99;49.14
6942;BME280;3510;43.200;27.920;2023-01-26T15:06:13;101284.06;;;15.85;48.87
6942;BME280;3510;43.200;27.920;2023-01-26T15:08:53;101289.38;;;15.76;49.52
6942;BME280;3510;43.200;27.920;2023-01-26T15:11:36;101207.53;;;15.43;48.64
6942;BME280;3510;43.200;27.920;2023-01-26T15:14:29;101282.69;;;16.02;48.48
6942;BME280;3510;43.200;27.920;2023-01-26T15:16:57;101265.28;;;15.94;47.86
6942;BME280;3510;43.200;27.920;2023-01-26T15:27:11;101250.50;;;15.89;48.73
6942;BME280;3510;43.200;27.920;2023-01-26T15:29:38;101244.69;;;15.66;48.88
6942;BME280;3510;43.200;27.920;2023-01-26T15:32:05;101187.09;;;15.42;49.17
6942;BME280;3510;43.200;27.920;2023-01-26T15:34:34;101233.00;;;15.68;49.14
6942;BME280;3510;43.200;27.920;2023-01-26T15:37:02;101263.53;;;15.70;49.67
6942;BME280;3510;43.200;27.920;2023-01-26T15:39:31;101253.03;;;15.89;49.20
6942;BME280;3510;43.200;27.920;2023-01-26T15:42:13;101252.25;;;15.90;49.19
6942;BME280;3510;43.200;27.920;2023-01-26T15:44:41;101228.34;;;15.75;49.29
6942;BME280;3510;43.200;27.920;2023-01-26T15:47:09;101216.16;;;15.94;48.72
6942;BME280;3510;43.200;27.920;2023-01-26T15:49:36;101221.94;;;15.80;49.28
6942;BME280;3510;43.200;27.920;2023-01-26T15:52:09;101240.25;;;15.76;50.32
6942;BME280;3510;43.200;27.920;2023-01-26T15:54:45;101237.97;;;15.43;50.40
6942;BME280;3510;43.200;27.920;2023-01-26T15:57:14;101250.19;;;15.72;49.81
6942;BME280;3510;43.200;27.920;2023-01-26T15:59:43;101253.81;;;15.88;49.31
6942;BME280;3510;43.200;27.920;2023-01-26T16:02:14;101165.72;;;15.27;49.48
6942;BME280;3510;43.200;27.920;2023-01-26T16:04:42;101194.03;;;15.80;48.96
6942;BME280;3510;43.200;27.920;2023-01-26T16:07:11;101204.50;;;15.49;49.14
6942;BME280;3510;43.200;27.920;2023-01-26T16:09:39;101245.84;;;15.83;48.81
6942;BME280;3510;43.200;27.920;2023-01-26T16:12:10;101219.94;;;15.76;48.81
6942;BME280;3510;43.200;27.920;2023-01-26T16:14:40;101197.81;;;15.38;49.07
6942;BME280;3510;43.200;27.920;2023-01-26T16:17:14;101222.66;;;15.90;48.62
6942;BME280;3510;43.200;27.920;2023-01-26T16:19:42;101180.13;;;15.63;48.69
6942;BME280;3510;43.200;27.920;2023-01-26T16:22:11;101247.19;;;15.78;48.53
6942;BME280;3510;43.200;27.920;2023-01-26T16:24:38;101184.25;;;15.25;48.52
6942;BME280;3510;43.200;27.920;2023-01-26T16:27:07;101220.28;;;15.80;48.24
6942;BME280;3510;43.200;27.920;2023-01-26T16:29:35;101170.50;;;15.22;48.10
6942;BME280;3510;43.200;27.920;2023-01-26T16:32:17;101204.31;;;15.69;48.28
6942;BME280;3510;43.200;27.920;2023-01-26T16:34:48;101127.09;;;15.54;47.15
6942;BME280;3510;43.200;27.920;2023-01-26T16:37:17;101208.47;;;15.57;48.30
6942;BME280;3510;43.200;27.920;2023-01-26T16:39:45;101205.84;;;15.67;48.79
6942;BME280;3510;43.200;27.920;2023-01-26T16:42:16;101101.53;;;14.91;49.50
6942;BME280;3510;43.200;27.920;2023-01-26T16:44:46;101133.66;;;15.39;48.72
6942;BME280;3510;43.200;27.920;2023-01-26T16:47:16;101136.09;;;15.25;49.00
6942;BME280;3510;43.200;27.920;2023-01-26T16:49:43;101116.59;;;15.24;48.35
6942;BME280;3510;43.200;27.920;2023-01-26T16:52:11;101157.56;;;15.91;47.87
6942;BME280;3510;43.200;27.920;2023-01-26T16:54:40;101113.25;;;15.37;48.03
6942;BME280;3510;43.200;27.920;2023-01-26T16:57:10;101142.25;;;15.29;48.80
6942;BME280;3510;43.200;27.920;2023-01-26T16:59:37;101151.22;;;15.24;48.99
6942;BME280;3510;43.200;27.920;2023-01-26T17:02:10;101129.88;;;15.45;49.34
6942;BME280;3510;43.200;27.920;2023-01-26T17:04:47;101174.44;;;15.65;48.69
6942;BME280;3510;43.200;27.920;2023-01-26T17:07:14;101169.25;;;15.40;48.79
6942;BME280;3510;43.200;27.920;2023-01-26T17:09:41;101119.88;;;15.23;48.65
6942;BME280;3510;43.200;27.920;2023-01-26T17:12:09;101182.75;;;15.88;48.41
6942;BME280;3510;43.200;27.920;2023-01-26T17:14:36;101171.94;;;15.79;48.63
6942;BME280;3510;43.200;27.920;2023-01-26T17:17:04;101128.75;;;15.42;49.54
6942;BME280;3510;43.200;27.920;2023-01-26T17:19:31;101139.78;;;15.54;49.21
6942;BME280;3510;43.200;27.920;2023-01-26T17:22:01;101109.91;;;15.38;48.98
6942;BME280;3510;43.200;27.920;2023-01-26T17:24:28;101145.72;;;15.66;49.53
6942;BME280;3510;43.200;27.920;2023-01-26T17:26:57;101100.25;;;15.33;49.11
6942;BME280;3510;43.200;27.920;2023-01-26T17:29:37;101121.88;;;15.76;49.09
6942;BME280;3510;43.200;27.920;2023-01-26T17:32:08;101084.38;;;15.60;49.05
6942;BME280;3510;43.200;27.920;2023-01-26T17:34:39;101091.94;;;15.47;49.60
6942;BME280;3510;43.200;27.920;2023-01-26T17:37:15;101122.56;;;15.62;49.64
6942;BME280;3510;43.200;27.920;2023-01-26T17:39:43;101090.66;;;15.90;49.33
6942;BME280;3510;43.200;27.920;2023-01-26T17:42:10;101138.53;;;15.97;49.62
6942;BME280;3510;43.200;27.920;2023-01-26T17:44:38;101120.69;;;15.96;50.02
6942;BME280;3510;43.200;27.920;2023-01-26T17:47:06;101138.53;;;15.97;50.27
6942;BME280;3510;43.200;27.920;2023-01-26T17:49:35;101078.00;;;15.65;50.30
6942;BME280;3510;43.200;27.920;2023-01-26T17:52:03;101133.88;;;16.42;49.73
6942;BME280;3510;43.200;27.920;2023-01-26T17:54:32;101126.41;;;16.18;50.12
6942;BME280;3510;43.200;27.920;2023-01-26T17:56:59;101124.94;;;15.84;50.60
6942;BME280;3510;43.200;27.920;2023-01-26T17:59:27;101097.75;;;15.94;50.26
6942;BME280;3510;43.200;27.920;2023-01-26T18:01:55;101010.13;;;15.38;50.55
6942;BME280;3510;43.200;27.920;2023-01-26T18:04:23;101104.00;;;16.13;49.66
6942;BME280;3510;43.200;27.920;2023-01-26T18:06:59;101093.78;;;16.11;49.90
6942;BME280;3510;43.200;27.920;2023-01-26T18:12:15;101099.38;;;15.94;50.80
6942;BME280;3510;43.200;27.920;2023-01-26T18:14:44;101031.81;;;15.21;51.31
6942;BME280;3510;43.200;27.920;2023-01-26T18:17:13;101107.59;;;16.28;50.31
6942;BME280;3510;43.200;27.920;2023-01-26T18:19:45;100993.97;;;15.49;51.10
6942;BME280;3510;43.200;27.920;2023-01-26T18:24:48;101089.34;;;15.95;51.33
6942;BME280;3510;43.200;27.920;2023-01-26T18:27:20;101089.84;;;15.78;51.92
6942;BME280;3510;43.200;27.920;2023-01-26T18:29:48;101074.56;;;15.90;51.57
6942;BME280;3510;43.200;27.920;2023-01-26T18:32:16;101084.72;;;15.90;51.80
6942;BME280;3510;43.200;27.920;2023-01-26T18:34:44;101089.56;;;15.99;51.36